sensor_id;sensor_type;location;lat;lon;timestamp;P1;durP1;ratioP1;P2;durP2;ratioP2
72771;SDS011;60894;42.544;1.516;2022-11-30T00:02:14;9.20;;;2.63;;
72771;SDS011;60894;42.544;1.516;2022-11-30T00:04:41;7.65;;;2.47;;
72771;SDS011;60894;42.544;1.516;2022-11-30T00:07:09;6.18;;;2.20;;
72771;SDS011;60894;42.544;1.516;2022-11-30T00:09:36;7.13;;;2.13;;
72771;SDS011;60894;42.544;1.516;2022-11-30T00:12:03;5.32;;;1.85;;
72771;SDS011;60894;42.544;1.516;2022-11-30T00:14:30;8.23;;;3.00;;
72771;SDS011;60894;42.544;1.516;2022-11-30T00:16:57;9.95;;;2.85;;
72771;SDS011;60894;42.544;1.516;2022-11-30T00:19:24;7.25;;;3.10;;
72771;SDS011;60894;42.544;1.516;2022-11-30T00:21:51;6.55;;;2.10;;
72771;SDS011;60894;42.544;1.516;2022-11-30T00:24:19;6.22;;;1.80;;
72771;SDS011;60894;42.544;1.516;2022-11-30T00:26:46;4.07;;;1.10;;
72771;SDS011;60894;42.544;1.516;2022-11-30T00:29:13;3.38;;;1.30;;
72771;SDS011;60894;42.544;1.516;2022-11-30T00:31:40;8.98;;;2.70;;
72771;SDS011;60894;42.544;1.516;2022-11-30T00:34:07;10.05;;;2.65;;
72771;SDS011;60894;42.544;1.516;2022-11-30T00:36:34;5.57;;;1.70;;
72771;SDS011;60894;42.544;1.516;2022-11-30T00:39:01;7.20;;;2.07;;
72771;SDS011;60894;42.544;1.516;2022-11-30T00:41:29;5.90;;;2.00;;
72771;SDS011;60894;42.544;1.516;2022-11-30T00:43:56;10.88;;;3.85;;
72771;SDS011;60894;42.544;1.516;2022-11-30T00:46:22;9.55;;;3.13;;
72771;SDS011;60894;42.544;1.516;2022-11-30T00:48:49;10.80;;;3.33;;
72771;SDS011;60894;42.544;1.516;2022-11-30T00:51:16;8.60;;;3.20;;
72771;SDS011;60894;42.544;1.516;2022-11-30T00:53:44;6.32;;;2.30;;
72771;SDS011;60894;42.544;1.516;2022-11-30T00:56:12;6.60;;;2.42;;
72771;SDS011;60894;42.544;1.516;2022-11-30T00:58:41;7.00;;;2.33;;
72771;SDS011;60894;42.544;1.516;2022-11-30T01:01:08;7.32;;;2.42;;
72771;SDS011;60894;42.544;1.516;2022-11-30T01:03:35;6.77;;;2.10;;
72771;SDS011;60894;42.544;1.516;2022-11-30T01:06:02;11.23;;;2.83;;
72771;SDS011;60894;42.544;1.516;2022-11-30T01:08:29;6.32;;;1.83;;
72771;SDS011;60894;42.544;1.516;2022-11-30T01:11:02;5.03;;;1.52;;
72771;SDS011;60894;42.544;1.516;2022-11-30T01:13:30;5.50;;;1.83;;
72771;SDS011;60894;42.544;1.516;2022-11-30T01:15:59;6.07;;;2.33;;
72771;SDS011;60894;42.544;1.516;2022-11-30T01:18:25;6.78;;;2.50;;
72771;SDS011;60894;42.544;1.516;2022-11-30T01:20:52;4.65;;;1.45;;
72771;SDS011;60894;42.544;1.516;2022-11-30T01:23:19;2.97;;;1.30;;
72771;SDS011;60894;42.544;1.516;2022-11-30T01:25:52;3.55;;;1.10;;
72771;SDS011;60894;42.544;1.516;2022-11-30T01:28:19;4.33;;;1.07;;
72771;SDS011;60894;42.544;1.516;2022-11-30T01:30:54;3.58;;;1.30;;
72771;SDS011;60894;42.544;1.516;2022-11-30T01:33:23;6.40;;;2.20;;
72771;SDS011;60894;42.544;1.516;2022-11-30T01:35:57;4.97;;;2.00;;
72771;SDS011;60894;42.544;1.516;2022-11-30T01:38:24;6.18;;;1.92;;
72771;SDS011;60894;42.544;1.516;2022-11-30T01:40:51;4.60;;;1.40;;
72771;SDS011;60894;42.544;1.516;2022-11-30T01:43:18;4.25;;;1.20;;
72771;SDS011;60894;42.544;1.516;2022-11-30T01:45:46;3.08;;;1.15;;
72771;SDS011;60894;42.544;1.516;2022-11-30T01:48:14;7.32;;;1.73;;
72771;SDS011;60894;42.544;1.516;2022-11-30T01:50:42;3.88;;;1.58;;
72771;SDS011;60894;42.544;1.516;2022-11-30T01:53:10;3.47;;;1.10;;
72771;SDS011;60894;42.544;1.516;2022-11-30T01:55:38;4.97;;;1.52;;
72771;SDS011;60894;42.544;1.516;2022-11-30T01:58:08;2.88;;;1.20;;
72771;SDS011;60894;42.544;1.516;2022-11-30T02:00:36;3.92;;;1.45;;
72771;SDS011;60894;42.544;1.516;2022-11-30T02:03:05;5.63;;;1.55;;
72771;SDS011;60894;42.544;1.516;2022-11-30T02:05:37;5.63;;;1.57;;
72771;SDS011;60894;42.544;1.516;2022-11-30T02:08:07;4.45;;;1.45;;
72771;SDS011;60894;42.544;1.516;2022-11-30T02:10:36;3.60;;;1.10;;
72771;SDS011;60894;42.544;1.516;2022-11-30T02:13:16;2.88;;;1.00;;
72771;SDS011;60894;42.544;1.516;2022-11-30T02:16:03;2.55;;;0.98;;
72771;SDS011;60894;42.544;1.516;2022-11-30T02:18:37;1.50;;;0.60;;
72771;SDS011;60894;42.544;1.516;2022-11-30T02:21:13;3.33;;;0.80;;
72771;SDS011;60894;42.544;1.516;2022-11-30T02:23:59;1.60;;;0.40;;
72771;SDS011;60894;42.544;1.516;2022-11-30T02:26:45;2.40;;;0.90;;
72771;SDS011;60894;42.544;1.516;2022-11-30T02:29:21;4.13;;;1.20;;
72771;SDS011;60894;42.544;1.516;2022-11-30T02:31:53;2.57;;;0.90;;
72771;SDS011;60894;42.544;1.516;2022-11-30T02:34:25;1.08;;;0.60;;
72771;SDS011;60894;42.544;1.516;2022-11-30T02:36:55;2.28;;;0.93;;
72771;SDS011;60894;42.544;1.516;2022-11-30T02:39:24;2.88;;;1.13;;
72771;SDS011;60894;42.544;1.516;2022-11-30T02:41:51;2.38;;;0.70;;
72771;SDS011;60894;42.544;1.516;2022-11-30T02:44:18;3.43;;;0.83;;
72771;SDS011;60894;42.544;1.516;2022-11-30T02:46:50;2.28;;;0.80;;
72771;SDS011;60894;42.544;1.516;2022-11-30T02:49:28;3.65;;;0.90;;
72771;SDS011;60894;42.544;1.516;2022-11-30T02:51:59;3.90;;;1.20;;
72771;SDS011;60894;42.544;1.516;2022-11-30T02:54:27;1.88;;;0.55;;
72771;SDS011;60894;42.544;1.516;2022-11-30T02:56:54;2.63;;;0.70;;
72771;SDS011;60894;42.544;1.516;2022-11-30T02:59:22;1.90;;;0.70;;
72771;SDS011;60894;42.544;1.516;2022-11-30T03:01:49;3.00;;;0.73;;
72771;SDS011;60894;42.544;1.516;2022-11-30T03:04:16;2.97;;;1.00;;
72771;SDS011;60894;42.544;1.516;2022-11-30T03:06:43;2.10;;;0.80;;
72771;SDS011;60894;42.544;1.516;2022-11-30T03:09:10;3.33;;;0.80;;
72771;SDS011;60894;42.544;1.516;2022-11-30T03:11:37;2.22;;;0.90;;
72771;SDS011;60894;42.544;1.516;2022-11-30T03:14:04;1.42;;;0.60;;
72771;SDS011;60894;42.544;1.516;2022-11-30T03:16:32;0.95;;;0.60;;
72771;SDS011;60894;42.544;1.516;2022-11-30T03:18:59;1.77;;;0.55;;
72771;SDS011;60894;42.544;1.516;2022-11-30T03:21:26;1.40;;;0.60;;
72771;SDS011;60894;42.544;1.516;2022-11-30T03:23:53;4.18;;;1.30;;
72771;SDS011;60894;42.544;1.516;2022-11-30T03:26:20;1.02;;;0.50;;
72771;SDS011;60894;42.544;1.516;2022-11-30T03:28:47;0.80;;;0.40;;
72771;SDS011;60894;42.544;1.516;2022-11-30T03:31:14;2.13;;;0.68;;
72771;SDS011;60894;42.544;1.516;2022-11-30T03:33:42;3.33;;;1.00;;
72771;SDS011;60894;42.544;1.516;2022-11-30T03:36:10;2.92;;;0.70;;
72771;SDS011;60894;42.544;1.516;2022-11-30T03:38:38;2.28;;;0.80;;
72771;SDS011;60894;42.544;1.516;2022-11-30T03:41:05;1.67;;;0.50;;
72771;SDS011;60894;42.544;1.516;2022-11-30T03:43:35;1.30;;;0.50;;
72771;SDS011;60894;42.544;1.516;2022-11-30T03:46:02;2.43;;;0.40;;
72771;SDS011;60894;42.544;1.516;2022-11-30T03:48:29;0.38;;;0.28;;
72771;SDS011;60894;42.544;1.516;2022-11-30T03:50:58;0.47;;;0.30;;
72771;SDS011;60894;42.544;1.516;2022-11-30T03:53:24;0.45;;;0.20;;
72771;SDS011;60894;42.544;1.516;2022-11-30T03:55:52;0.90;;;0.52;;
72771;SDS011;60894;42.544;1.516;2022-11-30T03:58:21;1.57;;;0.50;;
72771;SDS011;60894;42.544;1.516;2022-11-30T04:00:49;1.58;;;0.50;;
72771;SDS011;60894;42.544;1.516;2022-11-30T04:03:16;3.53;;;0.63;;
72771;SDS011;60894;42.544;1.516;2022-11-30T04:05:43;2.22;;;0.60;;
72771;SDS011;60894;42.544;1.516;2022-11-30T04:08:13;1.33;;;0.50;;
72771;SDS011;60894;42.544;1.516;2022-11-30T04:10:40;1.23;;;0.43;;
72771;SDS011;60894;42.544;1.516;2022-11-30T04:13:07;2.80;;;0.50;;
72771;SDS011;60894;42.544;1.516;2022-11-30T04:15:34;1.80;;;0.80;;
72771;SDS011;60894;42.544;1.516;2022-11-30T04:18:01;0.80;;;0.30;;
72771;SDS011;60894;42.544;1.516;2022-11-30T04:20:28;1.42;;;0.60;;
72771;SDS011;60894;42.544;1.516;2022-11-30T04:22:55;1.73;;;0.30;;
72771;SDS011;60894;42.544;1.516;2022-11-30T04:25:23;0.73;;;0.30;;
72771;SDS011;60894;42.544;1.516;2022-11-30T04:27:50;0.30;;;0.20;;
72771;SDS011;60894;42.544;1.516;2022-11-30T04:30:17;1.58;;;0.30;;
72771;SDS011;60894;42.544;1.516;2022-11-30T04:32:44;0.98;;;0.38;;
72771;SDS011;60894;42.544;1.516;2022-11-30T04:35:11;1.40;;;0.33;;
72771;SDS011;60894;42.544;1.516;2022-11-30T04:37:38;0.60;;;0.20;;
72771;SDS011;60894;42.544;1.516;2022-11-30T04:40:05;0.40;;;0.22;;
72771;SDS011;60894;42.544;1.516;2022-11-30T04:42:34;0.40;;;0.30;;
72771;SDS011;60894;42.544;1.516;2022-11-30T04:45:01;1.67;;;0.32;;
72771;SDS011;60894;42.544;1.516;2022-11-30T04:47:28;1.03;;;0.30;;
72771;SDS011;60894;42.544;1.516;2022-11-30T04:49:55;0.20;;;0.20;;
72771;SDS011;60894;42.544;1.516;2022-11-30T04:52:22;0.52;;;0.17;;
72771;SDS011;60894;42.544;1.516;2022-11-30T04:54:49;1.10;;;0.30;;
72771;SDS011;60894;42.544;1.516;2022-11-30T04:57:17;0.40;;;0.30;;
72771;SDS011;60894;42.544;1.516;2022-11-30T04:59:45;0.73;;;0.30;;
72771;SDS011;60894;42.544;1.516;2022-11-30T05:02:12;1.33;;;0.40;;
72771;SDS011;60894;42.544;1.516;2022-11-30T05:04:39;1.00;;;0.43;;
72771;SDS011;60894;42.544;1.516;2022-11-30T05:07:06;1.42;;;0.45;;
72771;SDS011;60894;42.544;1.516;2022-11-30T05:09:33;1.48;;;0.50;;
72771;SDS011;60894;42.544;1.516;2022-11-30T05:12:00;1.97;;;0.60;;
72771;SDS011;60894;42.544;1.516;2022-11-30T05:14:27;0.93;;;0.60;;
72771;SDS011;60894;42.544;1.516;2022-11-30T05:16:56;1.30;;;0.50;;
72771;SDS011;60894;42.544;1.516;2022-11-30T05:19:22;2.00;;;0.40;;
72771;SDS011;60894;42.544;1.516;2022-11-30T05:21:49;0.80;;;0.30;;
72771;SDS011;60894;42.544;1.516;2022-11-30T05:24:16;1.33;;;0.30;;
72771;SDS011;60894;42.544;1.516;2022-11-30T05:26:43;1.42;;;0.40;;
72771;SDS011;60894;42.544;1.516;2022-11-30T05:29:10;1.13;;;0.40;;
72771;SDS011;60894;42.544;1.516;2022-11-30T05:31:37;1.67;;;0.70;;
72771;SDS011;60894;42.544;1.516;2022-11-30T05:34:06;1.67;;;0.70;;
72771;SDS011;60894;42.544;1.516;2022-11-30T05:36:33;0.80;;;0.40;;
72771;SDS011;60894;42.544;1.516;2022-11-30T05:39:00;1.33;;;0.50;;
72771;SDS011;60894;42.544;1.516;2022-11-30T05:41:27;2.28;;;0.90;;
72771;SDS011;60894;42.544;1.516;2022-11-30T05:43:53;1.45;;;0.60;;
72771;SDS011;60894;42.544;1.516;2022-11-30T05:46:21;2.17;;;0.63;;
72771;SDS011;60894;42.544;1.516;2022-11-30T05:48:47;1.57;;;0.47;;
72771;SDS011;60894;42.544;1.516;2022-11-30T05:51:16;1.90;;;0.50;;
72771;SDS011;60894;42.544;1.516;2022-11-30T05:53:44;2.08;;;0.60;;
72771;SDS011;60894;42.544;1.516;2022-11-30T05:56:13;4.60;;;1.00;;
72771;SDS011;60894;42.544;1.516;2022-11-30T05:58:41;3.28;;;0.88;;
72771;SDS011;60894;42.544;1.516;2022-11-30T06:01:15;1.00;;;0.60;;
72771;SDS011;60894;42.544;1.516;2022-11-30T06:03:44;2.30;;;0.60;;
72771;SDS011;60894;42.544;1.516;2022-11-30T06:06:11;1.27;;;0.50;;
72771;SDS011;60894;42.544;1.516;2022-11-30T06:08:39;0.85;;;0.30;;
72771;SDS011;60894;42.544;1.516;2022-11-30T06:11:06;0.65;;;0.40;;
72771;SDS011;60894;42.544;1.516;2022-11-30T06:13:33;1.63;;;0.50;;
72771;SDS011;60894;42.544;1.516;2022-11-30T06:16:00;1.63;;;0.80;;
72771;SDS011;60894;42.544;1.516;2022-11-30T06:18:28;2.78;;;0.55;;
72771;SDS011;60894;42.544;1.516;2022-11-30T06:20:58;2.72;;;0.52;;
72771;SDS011;60894;42.544;1.516;2022-11-30T06:23:25;1.63;;;0.50;;
72771;SDS011;60894;42.544;1.516;2022-11-30T06:25:53;2.93;;;0.87;;
72771;SDS011;60894;42.544;1.516;2022-11-30T06:28:20;5.82;;;1.67;;
72771;SDS011;60894;42.544;1.516;2022-11-30T06:30:47;2.97;;;0.77;;
72771;SDS011;60894;42.544;1.516;2022-11-30T06:33:14;1.38;;;0.68;;
72771;SDS011;60894;42.544;1.516;2022-11-30T06:35:43;2.72;;;0.73;;
72771;SDS011;60894;42.544;1.516;2022-11-30T06:38:11;1.33;;;0.70;;
72771;SDS011;60894;42.544;1.516;2022-11-30T06:40:38;1.50;;;0.70;;
72771;SDS011;60894;42.544;1.516;2022-11-30T06:43:06;9.85;;;4.40;;
72771;SDS011;60894;42.544;1.516;2022-11-30T06:45:33;6.72;;;2.80;;
72771;SDS011;60894;42.544;1.516;2022-11-30T06:48:00;3.95;;;1.60;;
72771;SDS011;60894;42.544;1.516;2022-11-30T06:50:27;3.60;;;1.50;;
72771;SDS011;60894;42.544;1.516;2022-11-30T06:52:54;3.80;;;2.00;;
72771;SDS011;60894;42.544;1.516;2022-11-30T06:55:21;6.22;;;1.80;;
72771;SDS011;60894;42.544;1.516;2022-11-30T06:57:48;1.88;;;0.80;;
72771;SDS011;60894;42.544;1.516;2022-11-30T07:00:17;1.60;;;0.77;;
72771;SDS011;60894;42.544;1.516;2022-11-30T07:02:44;0.85;;;0.50;;
72771;SDS011;60894;42.544;1.516;2022-11-30T07:05:11;2.07;;;1.00;;
72771;SDS011;60894;42.544;1.516;2022-11-30T07:07:38;4.35;;;1.50;;
72771;SDS011;60894;42.544;1.516;2022-11-30T07:10:05;5.22;;;2.00;;
72771;SDS011;60894;42.544;1.516;2022-11-30T07:12:33;9.85;;;4.75;;
72771;SDS011;60894;42.544;1.516;2022-11-30T07:15:01;9.70;;;4.75;;
72771;SDS011;60894;42.544;1.516;2022-11-30T07:17:29;10.70;;;5.33;;
72771;SDS011;60894;42.544;1.516;2022-11-30T07:19:56;11.90;;;5.97;;
72771;SDS011;60894;42.544;1.516;2022-11-30T07:22:23;9.23;;;3.92;;
72771;SDS011;60894;42.544;1.516;2022-11-30T07:24:50;5.13;;;2.20;;
72771;SDS011;60894;42.544;1.516;2022-11-30T07:27:34;8.68;;;3.80;;
72771;SDS011;60894;42.544;1.516;2022-11-30T07:30:01;7.50;;;2.90;;
72771;SDS011;60894;42.544;1.516;2022-11-30T07:32:29;9.27;;;3.88;;
72771;SDS011;60894;42.544;1.516;2022-11-30T07:34:56;6.38;;;2.47;;
72771;SDS011;60894;42.544;1.516;2022-11-30T07:37:23;7.13;;;2.00;;
72771;SDS011;60894;42.544;1.516;2022-11-30T07:39:50;8.73;;;2.67;;
72771;SDS011;60894;42.544;1.516;2022-11-30T07:42:16;10.33;;;3.40;;
72771;SDS011;60894;42.544;1.516;2022-11-30T07:44:43;8.55;;;3.63;;
72771;SDS011;60894;42.544;1.516;2022-11-30T07:47:10;9.05;;;3.55;;
72771;SDS011;60894;42.544;1.516;2022-11-30T07:49:38;9.27;;;3.65;;
72771;SDS011;60894;42.544;1.516;2022-11-30T07:52:05;42.05;;;15.30;;
72771;SDS011;60894;42.544;1.516;2022-11-30T07:54:33;29.97;;;9.77;;
72771;SDS011;60894;42.544;1.516;2022-11-30T07:57:00;8.65;;;3.10;;
72771;SDS011;60894;42.544;1.516;2022-11-30T07:59:26;7.82;;;2.90;;
72771;SDS011;60894;42.544;1.516;2022-11-30T08:01:54;8.70;;;2.90;;
72771;SDS011;60894;42.544;1.516;2022-11-30T08:04:20;8.25;;;3.38;;
72771;SDS011;60894;42.544;1.516;2022-11-30T08:06:49;8.20;;;3.60;;
72771;SDS011;60894;42.544;1.516;2022-11-30T08:09:18;8.10;;;3.53;;
72771;SDS011;60894;42.544;1.516;2022-11-30T08:11:45;7.43;;;3.63;;
72771;SDS011;60894;42.544;1.516;2022-11-30T08:14:14;17.20;;;6.50;;
72771;SDS011;60894;42.544;1.516;2022-11-30T08:16:41;14.55;;;5.30;;
72771;SDS011;60894;42.544;1.516;2022-11-30T08:19:08;15.23;;;5.63;;
72771;SDS011;60894;42.544;1.516;2022-11-30T08:21:35;12.75;;;4.88;;
72771;SDS011;60894;42.544;1.516;2022-11-30T08:24:04;10.90;;;4.90;;
72771;SDS011;60894;42.544;1.516;2022-11-30T08:26:32;8.73;;;3.80;;
72771;SDS011;60894;42.544;1.516;2022-11-30T08:28:59;8.77;;;3.58;;
72771;SDS011;60894;42.544;1.516;2022-11-30T08:31:27;8.00;;;3.20;;
72771;SDS011;60894;42.544;1.516;2022-11-30T08:33:56;8.50;;;3.28;;
72771;SDS011;60894;42.544;1.516;2022-11-30T08:36:24;11.65;;;3.65;;
72771;SDS011;60894;42.544;1.516;2022-11-30T08:38:52;15.35;;;5.00;;
72771;SDS011;60894;42.544;1.516;2022-11-30T08:41:21;15.40;;;5.18;;
72771;SDS011;60894;42.544;1.516;2022-11-30T08:43:48;11.67;;;4.27;;
72771;SDS011;60894;42.544;1.516;2022-11-30T08:46:16;11.27;;;4.97;;
72771;SDS011;60894;42.544;1.516;2022-11-30T08:48:44;16.63;;;7.10;;
72771;SDS011;60894;42.544;1.516;2022-11-30T08:51:12;10.68;;;4.78;;
72771;SDS011;60894;42.544;1.516;2022-11-30T08:53:41;9.05;;;3.67;;
72771;SDS011;60894;42.544;1.516;2022-11-30T08:56:10;10.43;;;3.70;;
72771;SDS011;60894;42.544;1.516;2022-11-30T08:58:40;9.85;;;3.20;;
72771;SDS011;60894;42.544;1.516;2022-11-30T09:01:07;11.32;;;3.38;;
72771;SDS011;60894;42.544;1.516;2022-11-30T09:03:35;10.48;;;4.38;;
72771;SDS011;60894;42.544;1.516;2022-11-30T09:06:03;11.80;;;4.10;;
72771;SDS011;60894;42.544;1.516;2022-11-30T09:08:31;8.30;;;3.20;;
72771;SDS011;60894;42.544;1.516;2022-11-30T09:11:06;7.93;;;3.20;;
72771;SDS011;60894;42.544;1.516;2022-11-30T09:13:33;9.63;;;3.40;;
72771;SDS011;60894;42.544;1.516;2022-11-30T09:16:05;10.85;;;3.90;;
72771;SDS011;60894;42.544;1.516;2022-11-30T09:18:32;11.73;;;4.22;;
72771;SDS011;60894;42.544;1.516;2022-11-30T09:21:00;17.47;;;8.43;;
72771;SDS011;60894;42.544;1.516;2022-11-30T09:23:27;13.90;;;6.55;;
72771;SDS011;60894;42.544;1.516;2022-11-30T09:25:55;10.05;;;4.13;;
72771;SDS011;60894;42.544;1.516;2022-11-30T09:28:22;10.05;;;3.47;;
72771;SDS011;60894;42.544;1.516;2022-11-30T09:30:49;10.00;;;3.40;;
72771;SDS011;60894;42.544;1.516;2022-11-30T09:33:18;8.27;;;3.23;;
72771;SDS011;60894;42.544;1.516;2022-11-30T09:35:53;8.80;;;2.70;;
72771;SDS011;60894;42.544;1.516;2022-11-30T09:38:21;13.80;;;3.70;;
72771;SDS011;60894;42.544;1.516;2022-11-30T09:40:48;10.13;;;2.72;;
72771;SDS011;60894;42.544;1.516;2022-11-30T09:43:23;9.25;;;3.78;;
72771;SDS011;60894;42.544;1.516;2022-11-30T09:45:59;13.77;;;4.20;;
72771;SDS011;60894;42.544;1.516;2022-11-30T09:48:35;8.32;;;3.58;;
72771;SDS011;60894;42.544;1.516;2022-11-30T09:51:17;11.75;;;3.65;;
72771;SDS011;60894;42.544;1.516;2022-11-30T09:53:48;9.07;;;3.00;;
72771;SDS011;60894;42.544;1.516;2022-11-30T09:56:20;9.98;;;3.30;;
72771;SDS011;60894;42.544;1.516;2022-11-30T09:58:53;6.27;;;2.13;;
72771;SDS011;60894;42.544;1.516;2022-11-30T10:01:24;6.28;;;2.13;;
72771;SDS011;60894;42.544;1.516;2022-11-30T10:03:52;5.32;;;1.73;;
72771;SDS011;60894;42.544;1.516;2022-11-30T10:06:21;5.40;;;1.70;;
72771;SDS011;60894;42.544;1.516;2022-11-30T10:08:55;8.88;;;1.83;;
72771;SDS011;60894;42.544;1.516;2022-11-30T10:11:35;7.47;;;1.80;;
72771;SDS011;60894;42.544;1.516;2022-11-30T10:14:22;10.80;;;2.58;;
72771;SDS011;60894;42.544;1.516;2022-11-30T10:17:10;10.80;;;2.85;;
72771;SDS011;60894;42.544;1.516;2022-11-30T10:19:58;9.40;;;1.83;;
72771;SDS011;60894;42.544;1.516;2022-11-30T10:22:46;5.50;;;1.70;;
72771;SDS011;60894;42.544;1.516;2022-11-30T10:25:28;11.73;;;1.90;;
72771;SDS011;60894;42.544;1.516;2022-11-30T10:28:03;5.53;;;1.50;;
72771;SDS011;60894;42.544;1.516;2022-11-30T10:30:39;6.68;;;1.77;;
72771;SDS011;60894;42.544;1.516;2022-11-30T10:33:09;9.27;;;1.73;;
72771;SDS011;60894;42.544;1.516;2022-11-30T10:35:44;6.85;;;1.90;;
72771;SDS011;60894;42.544;1.516;2022-11-30T10:38:15;4.10;;;1.70;;
72771;SDS011;60894;42.544;1.516;2022-11-30T10:40:47;4.28;;;1.48;;
72771;SDS011;60894;42.544;1.516;2022-11-30T10:43:19;5.80;;;0.93;;
72771;SDS011;60894;42.544;1.516;2022-11-30T10:45:51;2.00;;;0.70;;
72771;SDS011;60894;42.544;1.516;2022-11-30T10:48:20;3.30;;;0.85;;
72771;SDS011;60894;42.544;1.516;2022-11-30T10:50:53;2.57;;;0.80;;
72771;SDS011;60894;42.544;1.516;2022-11-30T10:53:20;1.88;;;0.90;;
72771;SDS011;60894;42.544;1.516;2022-11-30T10:55:49;4.65;;;1.48;;
72771;SDS011;60894;42.544;1.516;2022-11-30T10:58:23;3.00;;;1.10;;
72771;SDS011;60894;42.544;1.516;2022-11-30T11:00:57;6.95;;;1.10;;
72771;SDS011;60894;42.544;1.516;2022-11-30T11:03:26;2.97;;;0.97;;
72771;SDS011;60894;42.544;1.516;2022-11-30T11:06:10;2.97;;;1.10;;
72771;SDS011;60894;42.544;1.516;2022-11-30T11:08:40;2.88;;;1.00;;
72771;SDS011;60894;42.544;1.516;2022-11-30T11:11:25;4.25;;;1.05;;
72771;SDS011;60894;42.544;1.516;2022-11-30T11:14:06;4.25;;;1.00;;
72771;SDS011;60894;42.544;1.516;2022-11-30T11:16:52;4.17;;;1.30;;
72771;SDS011;60894;42.544;1.516;2022-11-30T11:19:23;7.43;;;1.23;;
72771;SDS011;60894;42.544;1.516;2022-11-30T11:21:58;6.20;;;1.48;;
72771;SDS011;60894;42.544;1.516;2022-11-30T11:24:26;18.33;;;1.58;;
72771;SDS011;60894;42.544;1.516;2022-11-30T11:26:54;6.80;;;1.63;;
72771;SDS011;60894;42.544;1.516;2022-11-30T11:29:23;7.77;;;1.37;;
72771;SDS011;60894;42.544;1.516;2022-11-30T11:32:16;6.65;;;1.80;;
72771;SDS011;60894;42.544;1.516;2022-11-30T11:34:46;4.65;;;1.40;;
72771;SDS011;60894;42.544;1.516;2022-11-30T11:37:17;7.25;;;1.67;;
72771;SDS011;60894;42.544;1.516;2022-11-30T11:39:56;9.77;;;2.25;;
72771;SDS011;60894;42.544;1.516;2022-11-30T11:42:25;15.63;;;6.23;;
72771;SDS011;60894;42.544;1.516;2022-11-30T11:44:54;16.98;;;6.70;;
72771;SDS011;60894;42.544;1.516;2022-11-30T11:47:24;11.07;;;3.90;;
72771;SDS011;60894;42.544;1.516;2022-11-30T11:50:02;8.50;;;1.85;;
72771;SDS011;60894;42.544;1.516;2022-11-30T11:52:33;4.05;;;1.30;;
72771;SDS011;60894;42.544;1.516;2022-11-30T11:55:01;6.70;;;2.07;;
72771;SDS011;60894;42.544;1.516;2022-11-30T11:57:33;12.45;;;2.10;;
72771;SDS011;60894;42.544;1.516;2022-11-30T12:00:09;11.30;;;2.10;;
72771;SDS011;60894;42.544;1.516;2022-11-30T12:02:44;9.70;;;1.80;;
72771;SDS011;60894;42.544;1.516;2022-11-30T12:05:19;7.53;;;1.63;;
72771;SDS011;60894;42.544;1.516;2022-11-30T12:07:57;4.07;;;1.70;;
72771;SDS011;60894;42.544;1.516;2022-11-30T12:10:31;6.38;;;1.60;;
72771;SDS011;60894;42.544;1.516;2022-11-30T12:13:04;17.25;;;3.53;;
72771;SDS011;60894;42.544;1.516;2022-11-30T12:15:40;8.32;;;2.38;;
72771;SDS011;60894;42.544;1.516;2022-11-30T12:18:29;7.85;;;1.60;;
72771;SDS011;60894;42.544;1.516;2022-11-30T12:21:04;4.57;;;1.70;;
72771;SDS011;60894;42.544;1.516;2022-11-30T12:23:43;7.85;;;3.35;;
72771;SDS011;60894;42.544;1.516;2022-11-30T12:26:31;8.68;;;2.05;;
72771;SDS011;60894;42.544;1.516;2022-11-30T12:31:55;5.85;;;2.10;;
72771;SDS011;60894;42.544;1.516;2022-11-30T12:34:31;6.93;;;2.17;;
72771;SDS011;60894;42.544;1.516;2022-11-30T12:37:12;11.02;;;2.90;;
72771;SDS011;60894;42.544;1.516;2022-11-30T12:39:49;6.35;;;1.60;;
72771;SDS011;60894;42.544;1.516;2022-11-30T12:42:24;7.55;;;1.52;;
72771;SDS011;60894;42.544;1.516;2022-11-30T12:44:58;5.30;;;1.60;;
72771;SDS011;60894;42.544;1.516;2022-11-30T12:47:37;11.53;;;2.27;;
72771;SDS011;60894;42.544;1.516;2022-11-30T12:50:19;5.35;;;1.77;;
72771;SDS011;60894;42.544;1.516;2022-11-30T12:52:57;5.40;;;2.08;;
72771;SDS011;60894;42.544;1.516;2022-11-30T12:55:33;4.75;;;1.60;;
72771;SDS011;60894;42.544;1.516;2022-11-30T12:58:05;5.78;;;1.50;;
72771;SDS011;60894;42.544;1.516;2022-11-30T13:00:40;4.43;;;1.00;;
72771;SDS011;60894;42.544;1.516;2022-11-30T13:03:33;6.88;;;1.75;;
72771;SDS011;60894;42.544;1.516;2022-11-30T13:06:09;5.07;;;1.67;;
72771;SDS011;60894;42.544;1.516;2022-11-30T13:08:42;7.68;;;2.00;;
72771;SDS011;60894;42.544;1.516;2022-11-30T13:11:17;5.82;;;1.30;;
72771;SDS011;60894;42.544;1.516;2022-11-30T13:13:48;16.50;;;5.70;;
72771;SDS011;60894;42.544;1.516;2022-11-30T13:16:18;5.20;;;1.48;;
72771;SDS011;60894;42.544;1.516;2022-11-30T13:18:48;29.27;;;10.43;;
72771;SDS011;60894;42.544;1.516;2022-11-30T13:21:18;6.85;;;2.50;;
72771;SDS011;60894;42.544;1.516;2022-11-30T13:23:51;16.27;;;4.63;;
72771;SDS011;60894;42.544;1.516;2022-11-30T13:26:28;6.30;;;1.53;;
72771;SDS011;60894;42.544;1.516;2022-11-30T13:29:06;6.18;;;1.30;;
72771;SDS011;60894;42.544;1.516;2022-11-30T13:31:44;18.15;;;2.80;;
72771;SDS011;60894;42.544;1.516;2022-11-30T13:34:24;34.10;;;9.50;;
72771;SDS011;60894;42.544;1.516;2022-11-30T13:36:59;19.27;;;3.83;;
72771;SDS011;60894;42.544;1.516;2022-11-30T13:39:29;6.20;;;2.10;;
72771;SDS011;60894;42.544;1.516;2022-11-30T13:42:14;10.60;;;2.80;;
72771;SDS011;60894;42.544;1.516;2022-11-30T13:44:56;8.73;;;2.47;;
72771;SDS011;60894;42.544;1.516;2022-11-30T13:47:28;4.70;;;1.65;;
72771;SDS011;60894;42.544;1.516;2022-11-30T13:49:58;6.55;;;2.70;;
72771;SDS011;60894;42.544;1.516;2022-11-30T13:58:23;7.50;;;2.47;;
72771;SDS011;60894;42.544;1.516;2022-11-30T14:06:48;6.77;;;3.10;;
72771;SDS011;60894;42.544;1.516;2022-11-30T14:09:18;7.88;;;3.85;;
72771;SDS011;60894;42.544;1.516;2022-11-30T14:12:45;6.85;;;3.20;;
72771;SDS011;60894;42.544;1.516;2022-11-30T14:18:26;4.22;;;1.60;;
72771;SDS011;60894;42.544;1.516;2022-11-30T14:20:59;3.17;;;1.27;;
72771;SDS011;60894;42.544;1.516;2022-11-30T14:23:28;2.88;;;0.63;;
72771;SDS011;60894;42.544;1.516;2022-11-30T14:26:00;4.18;;;0.80;;
72771;SDS011;60894;42.544;1.516;2022-11-30T14:28:33;6.35;;;2.00;;
72771;SDS011;60894;42.544;1.516;2022-11-30T14:31:05;8.25;;;3.30;;
72771;SDS011;60894;42.544;1.516;2022-11-30T14:33:39;11.57;;;3.23;;
72771;SDS011;60894;42.544;1.516;2022-11-30T14:36:09;13.00;;;4.72;;
72771;SDS011;60894;42.544;1.516;2022-11-30T14:38:37;14.27;;;5.55;;
72771;SDS011;60894;42.544;1.516;2022-11-30T14:41:15;8.63;;;3.10;;
72771;SDS011;60894;42.544;1.516;2022-11-30T14:43:56;8.32;;;2.67;;
72771;SDS011;60894;42.544;1.516;2022-11-30T14:46:24;8.93;;;2.57;;
72771;SDS011;60894;42.544;1.516;2022-11-30T14:49:03;9.27;;;3.33;;
72771;SDS011;60894;42.544;1.516;2022-11-30T14:51:40;12.88;;;2.25;;
72771;SDS011;60894;42.544;1.516;2022-11-30T14:57:05;8.13;;;2.40;;
72771;SDS011;60894;42.544;1.516;2022-11-30T14:59:43;8.83;;;2.27;;
72771;SDS011;60894;42.544;1.516;2022-11-30T15:02:23;10.20;;;2.75;;
72771;SDS011;60894;42.544;1.516;2022-11-30T15:04:56;5.20;;;1.75;;
72771;SDS011;60894;42.544;1.516;2022-11-30T15:07:24;4.13;;;1.60;;
72771;SDS011;60894;42.544;1.516;2022-11-30T15:09:56;5.97;;;2.10;;
72771;SDS011;60894;42.544;1.516;2022-11-30T15:12:28;6.20;;;1.53;;
72771;SDS011;60894;42.544;1.516;2022-11-30T15:15:02;5.32;;;1.70;;
72771;SDS011;60894;42.544;1.516;2022-11-30T15:17:46;5.15;;;1.58;;
72771;SDS011;60894;42.544;1.516;2022-11-30T15:20:21;3.97;;;1.20;;
72771;SDS011;60894;42.544;1.516;2022-11-30T15:22:52;3.38;;;1.35;;
72771;SDS011;60894;42.544;1.516;2022-11-30T15:25:20;7.13;;;2.10;;
72771;SDS011;60894;42.544;1.516;2022-11-30T15:27:50;9.70;;;2.72;;